Piranguinho, Brazil
Current Conditions -  °F | °C
As of 10:00 AM on Friday 19 Dec 2014 (Local Time) from SBGW Reporting Station
Scattered Clouds Scattered Clouds  
Wind Chill: 79°   Ceiling: Unl
Heat Index: 81°   Visibility: 6mi
Dew Point: 68°   Wind: 3mph
Humidity: 69%   Direction: 60°ENE
Pressure: 29.91"   Gusts: NA
Location:  22.4°S, 45.53°W
Report Text: SBGW 191200Z 06003KT 9999 SCT018 26/20 Q1013
Loading
Personal Weather Stations






























Interactive Weather Map New forecast layout! Learn more

10-Day Weather Forecast

Advertisements
Track Severe Weather on mobile